createdAt,value
2022-10-16T00:00:35.768Z,98843.59
2022-10-16T00:06:37.934Z,98841.59
2022-10-16T00:20:20.458Z,98863.63
2022-10-16T00:26:23.413Z,98869.63
2022-10-16T00:32:25.680Z,98868.94
2022-10-16T00:38:27.915Z,98877.97
2022-10-16T00:44:58.424Z,98868.06
2022-10-16T00:51:00.836Z,98872.88
2022-10-16T00:57:06.876Z,98869.72
2022-10-16T01:03:32.175Z,98861.25
2022-10-16T01:10:22.952Z,98861.63
2022-10-16T01:16:50.188Z,98870.78
2022-10-16T01:23:26.187Z,98877.00
2022-10-16T01:29:59.728Z,98885.47
2022-10-16T01:36:29.023Z,98880.63
2022-10-16T01:42:40.419Z,98885.66
2022-10-16T01:48:42.745Z,98877.03
2022-10-16T01:54:49.741Z,98896.56
2022-10-16T02:00:53.215Z,98904.66
2022-10-16T02:06:56.169Z,98892.44
2022-10-16T02:13:06.956Z,98902.19
2022-10-16T02:19:09.291Z,98897.22
2022-10-16T02:25:23.029Z,98909.97
2022-10-16T02:31:30.317Z,98924.94
2022-10-16T02:37:33.313Z,98928.97
2022-10-16T02:43:35.487Z,98929.88
2022-10-16T02:49:37.411Z,98919.56
2022-10-16T02:55:39.309Z,98912.38
2022-10-16T03:01:41.326Z,98919.81
2022-10-16T03:07:43.422Z,98918.97
2022-10-16T03:13:45.328Z,98906.91
2022-10-16T03:19:47.244Z,98913.50
2022-10-16T03:25:49.177Z,98915.63
2022-10-16T03:31:51.076Z,98927.72
2022-10-16T03:37:53.306Z,98923.47
2022-10-16T03:43:55.176Z,98935.84
2022-10-16T03:56:06.794Z,98948.38
2022-10-16T04:02:08.690Z,98939.63
2022-10-16T04:08:10.837Z,98949.44
2022-10-16T04:14:13.039Z,98945.06
2022-10-16T04:20:15.474Z,98956.59
2022-10-16T04:26:17.480Z,98966.56
2022-10-16T04:32:54.375Z,98962.56
2022-10-16T04:38:56.701Z,98944.25
2022-10-16T04:44:58.566Z,98975.38
2022-10-16T04:51:00.871Z,98972.94
2022-10-16T04:57:03.168Z,98962.13
2022-10-16T05:03:08.526Z,98984.03
2022-10-16T05:09:11.210Z,98968.63
2022-10-16T05:15:26.645Z,98959.00
2022-10-16T05:21:28.751Z,98948.88
2022-10-16T05:27:30.884Z,98990.00
2022-10-16T05:33:32.825Z,99019.81
2022-10-16T05:39:34.851Z,98992.72
2022-10-16T05:45:39.693Z,98994.84
2022-10-16T05:51:42.925Z,98998.63
2022-10-16T05:57:45.957Z,99021.63
2022-10-16T06:03:48.168Z,99028.91
2022-10-16T06:10:02.439Z,99035.69
2022-10-16T06:16:05.930Z,99047.91
2022-10-16T06:22:08.325Z,99058.38
2022-10-16T06:28:10.469Z,99077.16
2022-10-16T06:34:13.159Z,99074.09
2022-10-16T06:40:16.330Z,99074.47
2022-10-16T06:46:23.083Z,99082.69
2022-10-16T06:52:26.067Z,99094.75
2022-10-16T06:58:28.433Z,99122.47
2022-10-16T07:04:30.498Z,99135.28
2022-10-16T07:10:33.830Z,99140.47
2022-10-16T07:16:35.731Z,99130.50
2022-10-16T07:22:43.658Z,99148.78
2022-10-16T07:28:46.081Z,99153.88
2022-10-16T07:34:48.206Z,99170.06
2022-10-16T07:41:03.467Z,99164.38
2022-10-16T07:47:05.366Z,99179.28
2022-10-16T07:53:07.675Z,99168.25
2022-10-16T07:59:11.491Z,99196.19
2022-10-16T08:05:13.950Z,99216.06
2022-10-16T08:11:16.296Z,99179.91
2022-10-16T08:17:21.054Z,99202.66
2022-10-16T08:23:22.961Z,99202.56
2022-10-16T08:29:24.924Z,99218.59
2022-10-16T08:35:26.857Z,99234.81
2022-10-16T08:41:56.438Z,99245.56
2022-10-16T08:48:10.366Z,99246.00
2022-10-16T08:54:41.598Z,99260.16
2022-10-16T09:00:51.413Z,99272.41
2022-10-16T09:07:39.949Z,99279.94
2022-10-16T09:13:49.412Z,99289.31
2022-10-16T09:20:43.708Z,99293.28
2022-10-16T09:26:47.481Z,99293.94
2022-10-16T09:32:54.023Z,99301.81
2022-10-16T09:39:15.685Z,99296.84
2022-10-16T09:45:25.404Z,99315.13
2022-10-16T09:51:37.572Z,99306.31
2022-10-16T09:57:54.091Z,99307.13
2022-10-16T10:04:03.491Z,99314.56
2022-10-16T10:10:07.372Z,99312.09
2022-10-16T10:17:09.645Z,99326.63
2022-10-16T10:24:11.054Z,99319.59
2022-10-16T10:30:29.005Z,99326.47
2022-10-16T10:36:43.045Z,99324.34
2022-10-16T10:43:25.607Z,99341.00
2022-10-16T10:49:49.000Z,99334.47
2022-10-16T10:56:30.555Z,99350.00
2022-10-16T11:02:43.056Z,99349.91
2022-10-16T11:09:01.406Z,99349.41
2022-10-16T11:15:27.767Z,99354.69
2022-10-16T11:21:40.674Z,99354.81
2022-10-16T11:28:18.368Z,99356.69
2022-10-16T11:34:37.927Z,99348.22
2022-10-16T11:41:05.491Z,99360.59
2022-10-16T11:47:58.679Z,99350.81
2022-10-16T11:54:25.833Z,99345.09
2022-10-16T12:00:51.860Z,99353.56
2022-10-16T12:07:13.095Z,99346.03
2022-10-16T12:13:37.682Z,99348.66
2022-10-16T12:19:39.625Z,99350.03
2022-10-16T12:25:47.529Z,99362.69
2022-10-16T12:31:57.528Z,99364.56
2022-10-16T12:38:22.426Z,99367.47
2022-10-16T12:44:25.655Z,99365.03
2022-10-16T12:50:34.533Z,99378.94
2022-10-16T12:57:07.416Z,99393.47
2022-10-16T13:03:44.881Z,99390.97
2022-10-16T13:10:08.406Z,99381.13
2022-10-16T13:16:27.753Z,99390.25
2022-10-16T13:22:57.585Z,99411.44
2022-10-16T13:29:02.413Z,99411.38
2022-10-16T13:35:18.916Z,99427.34
2022-10-16T13:41:22.221Z,99423.56
2022-10-16T13:47:31.028Z,99424.53
2022-10-16T13:53:35.840Z,99424.72
2022-10-16T13:59:39.994Z,99429.47
2022-10-16T14:06:07.645Z,99428.16
2022-10-16T14:12:13.456Z,99426.16
2022-10-16T14:18:23.894Z,99442.34
2022-10-16T14:24:33.109Z,99445.34
2022-10-16T14:30:37.482Z,99429.66
2022-10-16T14:36:42.499Z,99437.78
2022-10-16T14:42:46.635Z,99435.59
2022-10-16T14:48:52.220Z,99445.41
2022-10-16T14:54:55.997Z,99447.78
2022-10-16T15:00:58.115Z,99452.44
2022-10-16T15:07:00.096Z,99450.47
2022-10-16T15:13:02.055Z,99448.31
2022-10-16T15:19:04.350Z,99442.25
2022-10-16T15:25:08.785Z,99432.19
2022-10-16T15:31:10.790Z,99444.38
2022-10-16T15:37:16.127Z,99449.41
2022-10-16T15:43:19.324Z,99459.28
2022-10-16T15:49:21.226Z,99483.28
2022-10-16T16:01:48.603Z,99473.00
2022-10-16T16:14:00.101Z,99482.25
2022-10-16T16:20:03.050Z,99494.34
2022-10-16T16:26:16.444Z,99482.69
2022-10-16T16:32:18.320Z,99491.31
2022-10-16T16:38:20.252Z,99516.13
2022-10-16T16:44:22.211Z,99524.50
2022-10-16T16:50:24.121Z,99502.38
2022-10-16T16:56:27.170Z,99487.41
2022-10-16T17:02:29.101Z,99505.25
2022-10-16T17:08:31.258Z,99532.38
2022-10-16T17:14:33.252Z,99536.59
2022-10-16T17:20:37.143Z,99538.22
2022-10-16T17:26:41.396Z,99551.88
2022-10-16T17:32:43.290Z,99551.78
2022-10-16T17:38:46.100Z,99548.44
2022-10-16T17:44:48.046Z,99555.03
2022-10-16T17:50:49.971Z,99561.25
2022-10-16T17:56:52.012Z,99573.19
2022-10-16T18:02:53.934Z,99577.22
2022-10-16T18:08:58.231Z,99586.34
2022-10-16T18:15:00.576Z,99599.00
2022-10-16T18:21:07.497Z,99592.72
2022-10-16T18:27:23.294Z,99602.63
2022-10-16T18:39:59.972Z,99591.81
2022-10-16T18:46:05.954Z,99610.31
2022-10-16T18:52:07.937Z,99622.22
2022-10-16T18:58:10.081Z,99626.59
2022-10-16T19:04:16.679Z,99606.00
2022-10-16T19:10:19.884Z,99626.97
2022-10-16T19:16:32.241Z,99636.72
2022-10-16T19:22:54.269Z,99636.59
2022-10-16T19:29:02.070Z,99634.84
2022-10-16T19:35:04.353Z,99622.63
2022-10-16T19:41:12.165Z,99624.41
2022-10-16T19:47:14.684Z,99621.75
2022-10-16T19:53:16.604Z,99638.03
2022-10-16T19:59:20.280Z,99652.13
2022-10-16T20:05:22.245Z,99662.31
2022-10-16T20:11:28.512Z,99666.59
2022-10-16T20:17:30.722Z,99654.09
2022-10-16T20:23:33.646Z,99668.69
2022-10-16T20:29:35.611Z,99670.06
2022-10-16T20:35:44.683Z,99676.63
2022-10-16T20:41:46.613Z,99663.41
2022-10-16T20:47:48.548Z,99652.94
2022-10-16T20:54:02.858Z,99671.78
2022-10-16T21:00:06.411Z,99670.97
2022-10-16T21:06:10.507Z,99673.53
2022-10-16T21:12:12.654Z,99656.44
2022-10-16T21:18:14.584Z,99677.44
2022-10-16T21:24:17.892Z,99676.47
2022-10-16T21:30:20.139Z,99677.75
2022-10-16T21:36:31.560Z,99678.22
2022-10-16T21:42:36.575Z,99680.47
2022-10-16T21:48:39.474Z,99666.78
2022-10-16T21:54:41.906Z,99661.84
2022-10-16T22:00:43.878Z,99667.41
2022-10-16T22:06:47.310Z,99667.16
2022-10-16T22:13:02.180Z,99658.78
2022-10-16T22:19:07.362Z,99671.38
2022-10-16T22:25:09.672Z,99662.50
2022-10-16T22:38:53.529Z,99664.28
2022-10-16T22:45:14.817Z,99674.53
2022-10-16T22:51:17.993Z,99678.56
2022-10-16T22:57:19.978Z,99674.81
2022-10-16T23:03:22.343Z,99667.22
2022-10-16T23:09:24.326Z,99655.56
2022-10-16T23:15:26.425Z,99654.59
2022-10-16T23:21:28.486Z,99661.78
2022-10-16T23:27:40.342Z,99665.06
2022-10-16T23:33:51.165Z,99668.94
2022-10-16T23:39:54.074Z,99671.78
2022-10-16T23:45:56.107Z,99670.28
2022-10-16T23:51:58.000Z,99671.53
2022-10-16T23:57:59.893Z,99672.13
